sensor_id;sensor_type;location;lat;lon;timestamp;pressure;altitude;pressure_sealevel;temperature;humidity
69836;BME280;57132;51.972;4.450;2022-08-21T00:01:18;101659.06;;;16.21;100.00
69836;BME280;57132;51.972;4.450;2022-08-21T00:03:44;101649.38;;;16.19;100.00
69836;BME280;57132;51.972;4.450;2022-08-21T00:06:09;101659.31;;;16.18;100.00
69836;BME280;57132;51.972;4.450;2022-08-21T00:08:35;101657.97;;;16.13;100.00
69836;BME280;57132;51.972;4.450;2022-08-21T00:11:02;101658.22;;;16.10;100.00
69836;BME280;57132;51.972;4.450;2022-08-21T00:13:27;101657.75;;;16.05;100.00
69836;BME280;57132;51.972;4.450;2022-08-21T00:15:53;101656.03;;;16.04;100.00
69836;BME280;57132;51.972;4.450;2022-08-21T00:18:19;101658.47;;;16.07;100.00
69836;BME280;57132;51.972;4.450;2022-08-21T00:20:45;101653.22;;;16.05;100.00
69836;BME280;57132;51.972;4.450;2022-08-21T00:23:11;101657.00;;;16.03;100.00
69836;BME280;57132;51.972;4.450;2022-08-21T00:25:37;101659.44;;;16.06;100.00
69836;BME280;57132;51.972;4.450;2022-08-21T00:28:03;101647.97;;;16.04;100.00
69836;BME280;57132;51.972;4.450;2022-08-21T00:30:30;101646.00;;;16.06;100.00
69836;BME280;57132;51.972;4.450;2022-08-21T00:32:57;101644.03;;;16.08;100.00
69836;BME280;57132;51.972;4.450;2022-08-21T00:35:33;101656.75;;;16.06;100.00
69836;BME280;57132;51.972;4.450;2022-08-21T00:37:59;101652.34;;;16.05;100.00
69836;BME280;57132;51.972;4.450;2022-08-21T00:40:31;101644.91;;;16.08;100.00
69836;BME280;57132;51.972;4.450;2022-08-21T00:42:57;101646.84;;;16.06;100.00
69836;BME280;57132;51.972;4.450;2022-08-21T00:45:24;101643.44;;;16.04;100.00
69836;BME280;57132;51.972;4.450;2022-08-21T00:47:51;101640.13;;;16.01;100.00
69836;BME280;57132;51.972;4.450;2022-08-21T00:50:18;101647.22;;;16.02;100.00
69836;BME280;57132;51.972;4.450;2022-08-21T00:52:44;101637.53;;;15.99;100.00
69836;BME280;57132;51.972;4.450;2022-08-21T00:55:11;101637.81;;;15.96;100.00
69836;BME280;57132;51.972;4.450;2022-08-21T00:57:47;101639.03;;;15.92;100.00
69836;BME280;57132;51.972;4.450;2022-08-21T01:00:23;101641.13;;;15.88;100.00
69836;BME280;57132;51.972;4.450;2022-08-21T01:02:48;101632.66;;;15.82;100.00
69836;BME280;57132;51.972;4.450;2022-08-21T01:05:15;101637.56;;;15.77;100.00
69836;BME280;57132;51.972;4.450;2022-08-21T01:07:41;101637.19;;;15.70;100.00
69836;BME280;57132;51.972;4.450;2022-08-21T01:10:07;101634.03;;;15.65;100.00
69836;BME280;57132;51.972;4.450;2022-08-21T01:12:33;101638.63;;;15.63;100.00
69836;BME280;57132;51.972;4.450;2022-08-21T01:15:01;101637.91;;;15.61;100.00
69836;BME280;57132;51.972;4.450;2022-08-21T01:17:27;101638.84;;;15.60;100.00
69836;BME280;57132;51.972;4.450;2022-08-21T01:19:57;101638.28;;;15.56;100.00
69836;BME280;57132;51.972;4.450;2022-08-21T01:22:23;101630.44;;;15.53;100.00
69836;BME280;57132;51.972;4.450;2022-08-21T01:24:48;101633.22;;;15.52;100.00
69836;BME280;57132;51.972;4.450;2022-08-21T01:27:15;101635.91;;;15.52;100.00
69836;BME280;57132;51.972;4.450;2022-08-21T01:29:59;101632.63;;;15.48;100.00
69836;BME280;57132;51.972;4.450;2022-08-21T01:32:26;101631.03;;;15.45;100.00
69836;BME280;57132;51.972;4.450;2022-08-21T01:34:52;101630.06;;;15.46;100.00
69836;BME280;57132;51.972;4.450;2022-08-21T01:37:20;101625.53;;;15.47;100.00
69836;BME280;57132;51.972;4.450;2022-08-21T01:39:46;101623.97;;;15.44;100.00
69836;BME280;57132;51.972;4.450;2022-08-21T01:42:12;101625.91;;;15.42;100.00
69836;BME280;57132;51.972;4.450;2022-08-21T01:44:38;101630.66;;;15.39;100.00
69836;BME280;57132;51.972;4.450;2022-08-21T01:47:06;101621.00;;;15.36;100.00
69836;BME280;57132;51.972;4.450;2022-08-21T01:49:33;101625.66;;;15.34;100.00
69836;BME280;57132;51.972;4.450;2022-08-21T01:51:58;101619.50;;;15.32;100.00
69836;BME280;57132;51.972;4.450;2022-08-21T01:54:24;101621.34;;;15.32;100.00
69836;BME280;57132;51.972;4.450;2022-08-21T01:56:51;101621.88;;;15.37;100.00
69836;BME280;57132;51.972;4.450;2022-08-21T01:59:17;101619.28;;;15.35;100.00
69836;BME280;57132;51.972;4.450;2022-08-21T02:01:43;101612.81;;;15.38;100.00
69836;BME280;57132;51.972;4.450;2022-08-21T02:04:09;101611.97;;;15.37;100.00
69836;BME280;57132;51.972;4.450;2022-08-21T02:06:35;101606.69;;;15.36;100.00
69836;BME280;57132;51.972;4.450;2022-08-21T02:09:04;101609.72;;;15.31;100.00
69836;BME280;57132;51.972;4.450;2022-08-21T02:11:30;101607.19;;;15.30;100.00
69836;BME280;57132;51.972;4.450;2022-08-21T02:13:56;101603.63;;;15.29;100.00
69836;BME280;57132;51.972;4.450;2022-08-21T02:16:21;101597.63;;;15.25;100.00
69836;BME280;57132;51.972;4.450;2022-08-21T02:18:46;101597.88;;;15.22;100.00
69836;BME280;57132;51.972;4.450;2022-08-21T02:21:12;101596.16;;;15.21;100.00
69836;BME280;57132;51.972;4.450;2022-08-21T02:23:37;101599.84;;;15.20;100.00
69836;BME280;57132;51.972;4.450;2022-08-21T02:26:05;101598.84;;;15.21;100.00
69836;BME280;57132;51.972;4.450;2022-08-21T02:28:32;101596.16;;;15.21;100.00
69836;BME280;57132;51.972;4.450;2022-08-21T02:30:58;101604.97;;;15.23;100.00
69836;BME280;57132;51.972;4.450;2022-08-21T02:33:24;101604.84;;;15.25;100.00
69836;BME280;57132;51.972;4.450;2022-08-21T02:35:50;101600.56;;;15.22;100.00
69836;BME280;57132;51.972;4.450;2022-08-21T02:38:22;101603.63;;;15.18;100.00
69836;BME280;57132;51.972;4.450;2022-08-21T02:40:49;101597.25;;;15.19;100.00
69836;BME280;57132;51.972;4.450;2022-08-21T02:43:15;101593.09;;;15.15;100.00
69836;BME280;57132;51.972;4.450;2022-08-21T02:45:42;101594.19;;;15.12;100.00
69836;BME280;57132;51.972;4.450;2022-08-21T02:48:11;101598.69;;;15.12;100.00
69836;BME280;57132;51.972;4.450;2022-08-21T02:50:43;101591.63;;;15.11;100.00
69836;BME280;57132;51.972;4.450;2022-08-21T02:53:11;101593.59;;;15.09;100.00
69836;BME280;57132;51.972;4.450;2022-08-21T02:55:37;101593.47;;;15.10;100.00
69836;BME280;57132;51.972;4.450;2022-08-21T02:58:04;101589.69;;;15.13;100.00
69836;BME280;57132;51.972;4.450;2022-08-21T03:00:31;101588.94;;;15.11;100.00
69836;BME280;57132;51.972;4.450;2022-08-21T03:02:57;101587.94;;;15.12;100.00
69836;BME280;57132;51.972;4.450;2022-08-21T03:05:24;101579.16;;;15.10;100.00
69836;BME280;57132;51.972;4.450;2022-08-21T03:07:49;101584.53;;;15.10;100.00
69836;BME280;57132;51.972;4.450;2022-08-21T03:10:15;101580.72;;;15.12;100.00
69836;BME280;57132;51.972;4.450;2022-08-21T03:12:41;101580.88;;;15.11;100.00
69836;BME280;57132;51.972;4.450;2022-08-21T03:15:13;101576.47;;;15.10;100.00
69836;BME280;57132;51.972;4.450;2022-08-21T03:17:39;101576.69;;;15.07;100.00
69836;BME280;57132;51.972;4.450;2022-08-21T03:20:05;101579.75;;;15.02;100.00
69836;BME280;57132;51.972;4.450;2022-08-21T03:22:31;101570.69;;;15.03;100.00
69836;BME280;57132;51.972;4.450;2022-08-21T03:24:57;101574.16;;;15.05;100.00
69836;BME280;57132;51.972;4.450;2022-08-21T03:27:23;101572.31;;;15.06;100.00
69836;BME280;57132;51.972;4.450;2022-08-21T03:29:49;101569.00;;;15.02;100.00
69836;BME280;57132;51.972;4.450;2022-08-21T03:32:15;101565.31;;;15.03;100.00
69836;BME280;57132;51.972;4.450;2022-08-21T03:34:40;101566.94;;;15.06;100.00
69836;BME280;57132;51.972;4.450;2022-08-21T03:37:06;101562.53;;;15.05;100.00
69836;BME280;57132;51.972;4.450;2022-08-21T03:39:32;101561.91;;;15.01;100.00
69836;BME280;57132;51.972;4.450;2022-08-21T03:41:58;101563.63;;;15.02;100.00
69836;BME280;57132;51.972;4.450;2022-08-21T03:44:25;101559.94;;;15.03;100.00
69836;BME280;57132;51.972;4.450;2022-08-21T03:46:51;101558.13;;;15.04;100.00
69836;BME280;57132;51.972;4.450;2022-08-21T03:49:16;101560.94;;;15.02;100.00
69836;BME280;57132;51.972;4.450;2022-08-21T03:51:42;101558.34;;;15.00;100.00
69836;BME280;57132;51.972;4.450;2022-08-21T03:54:07;101562.78;;;15.02;100.00
69836;BME280;57132;51.972;4.450;2022-08-21T03:56:33;101561.03;;;15.00;100.00
69836;BME280;57132;51.972;4.450;2022-08-21T03:58:58;101559.31;;;14.99;100.00
69836;BME280;57132;51.972;4.450;2022-08-21T04:01:23;101557.00;;;14.95;100.00
69836;BME280;57132;51.972;4.450;2022-08-21T04:03:49;101569.72;;;14.93;100.00
69836;BME280;57132;51.972;4.450;2022-08-21T04:06:14;101555.41;;;14.92;100.00
69836;BME280;57132;51.972;4.450;2022-08-21T04:08:40;101554.53;;;14.92;100.00
69836;BME280;57132;51.972;4.450;2022-08-21T04:11:07;101566.78;;;14.96;100.00
69836;BME280;57132;51.972;4.450;2022-08-21T04:13:35;101563.13;;;14.97;100.00
69836;BME280;57132;51.972;4.450;2022-08-21T04:16:00;101562.13;;;14.87;100.00
69836;BME280;57132;51.972;4.450;2022-08-21T04:18:25;101565.78;;;14.86;100.00
69836;BME280;57132;51.972;4.450;2022-08-21T04:20:52;101569.34;;;14.86;100.00
69836;BME280;57132;51.972;4.450;2022-08-21T04:23:19;101571.88;;;14.88;100.00
69836;BME280;57132;51.972;4.450;2022-08-21T04:25:45;101563.81;;;14.88;100.00
69836;BME280;57132;51.972;4.450;2022-08-21T04:28:11;101576.41;;;14.87;100.00
69836;BME280;57132;51.972;4.450;2022-08-21T04:30:36;101574.72;;;14.86;100.00
69836;BME280;57132;51.972;4.450;2022-08-21T04:33:02;101575.56;;;14.87;100.00
69836;BME280;57132;51.972;4.450;2022-08-21T04:35:29;101588.25;;;14.85;100.00
69836;BME280;57132;51.972;4.450;2022-08-21T04:37:55;101585.22;;;14.89;100.00
69836;BME280;57132;51.972;4.450;2022-08-21T04:40:23;101592.75;;;14.84;100.00
69836;BME280;57132;51.972;4.450;2022-08-21T04:42:52;101590.94;;;14.85;100.00
69836;BME280;57132;51.972;4.450;2022-08-21T04:45:45;101591.06;;;14.83;100.00
69836;BME280;57132;51.972;4.450;2022-08-21T04:48:14;101593.53;;;14.86;100.00
69836;BME280;57132;51.972;4.450;2022-08-21T04:53:18;101597.69;;;14.90;100.00
69836;BME280;57132;51.972;4.450;2022-08-21T04:55:45;101601.22;;;14.91;100.00
69836;BME280;57132;51.972;4.450;2022-08-21T04:58:15;101604.03;;;14.89;100.00
69836;BME280;57132;51.972;4.450;2022-08-21T05:00:43;101600.16;;;14.93;100.00
69836;BME280;57132;51.972;4.450;2022-08-21T05:03:09;101599.44;;;15.03;100.00
69836;BME280;57132;51.972;4.450;2022-08-21T05:05:36;101610.34;;;15.23;100.00
69836;BME280;57132;51.972;4.450;2022-08-21T05:08:03;101604.13;;;15.45;100.00
69836;BME280;57132;51.972;4.450;2022-08-21T05:10:29;101604.19;;;15.68;100.00
69836;BME280;57132;51.972;4.450;2022-08-21T05:12:56;101606.13;;;15.77;100.00
69836;BME280;57132;51.972;4.450;2022-08-21T05:15:23;101607.59;;;15.81;100.00
69836;BME280;57132;51.972;4.450;2022-08-21T05:17:48;101601.72;;;15.76;100.00
69836;BME280;57132;51.972;4.450;2022-08-21T05:20:15;101593.66;;;15.76;100.00
69836;BME280;57132;51.972;4.450;2022-08-21T05:22:41;101601.97;;;15.73;100.00
69836;BME280;57132;51.972;4.450;2022-08-21T05:25:09;101604.75;;;15.71;100.00
69836;BME280;57132;51.972;4.450;2022-08-21T05:27:35;101600.25;;;15.72;100.00
69836;BME280;57132;51.972;4.450;2022-08-21T05:30:01;101608.19;;;15.73;100.00
69836;BME280;57132;51.972;4.450;2022-08-21T05:32:26;101600.00;;;15.75;100.00
69836;BME280;57132;51.972;4.450;2022-08-21T05:34:53;101607.97;;;15.77;100.00
69836;BME280;57132;51.972;4.450;2022-08-21T05:37:19;101611.97;;;15.82;100.00
69836;BME280;57132;51.972;4.450;2022-08-21T05:39:45;101610.16;;;15.83;100.00
69836;BME280;57132;51.972;4.450;2022-08-21T05:42:11;101606.84;;;15.90;100.00
69836;BME280;57132;51.972;4.450;2022-08-21T05:44:36;101602.81;;;15.96;100.00
69836;BME280;57132;51.972;4.450;2022-08-21T05:47:06;101600.44;;;16.03;100.00
69836;BME280;57132;51.972;4.450;2022-08-21T05:49:32;101597.13;;;16.10;100.00
69836;BME280;57132;51.972;4.450;2022-08-21T05:51:57;101595.50;;;16.19;100.00
69836;BME280;57132;51.972;4.450;2022-08-21T05:54:22;101595.47;;;16.30;100.00
69836;BME280;57132;51.972;4.450;2022-08-21T05:56:48;101606.97;;;16.43;100.00
69836;BME280;57132;51.972;4.450;2022-08-21T05:59:14;101605.19;;;16.54;100.00
69836;BME280;57132;51.972;4.450;2022-08-21T06:01:40;101605.75;;;16.68;100.00
69836;BME280;57132;51.972;4.450;2022-08-21T06:04:06;101604.41;;;16.74;100.00
69836;BME280;57132;51.972;4.450;2022-08-21T06:06:32;101605.34;;;16.84;100.00
69836;BME280;57132;51.972;4.450;2022-08-21T06:08:58;101610.94;;;16.92;100.00
69836;BME280;57132;51.972;4.450;2022-08-21T06:11:23;101612.59;;;17.05;100.00
69836;BME280;57132;51.972;4.450;2022-08-21T06:13:48;101611.31;;;17.30;100.00
69836;BME280;57132;51.972;4.450;2022-08-21T06:16:15;101612.78;;;17.64;100.00
69836;BME280;57132;51.972;4.450;2022-08-21T06:18:42;101616.28;;;18.46;100.00
69836;BME280;57132;51.972;4.450;2022-08-21T06:21:08;101617.94;;;19.24;95.48
69836;BME280;57132;51.972;4.450;2022-08-21T06:23:34;101613.59;;;19.60;91.21
69836;BME280;57132;51.972;4.450;2022-08-21T06:26:01;101607.59;;;20.22;86.77
69836;BME280;57132;51.972;4.450;2022-08-21T06:28:27;101611.03;;;20.77;84.25
69836;BME280;57132;51.972;4.450;2022-08-21T06:30:52;101604.56;;;21.40;81.04
69836;BME280;57132;51.972;4.450;2022-08-21T06:33:18;101616.66;;;21.80;78.46
69836;BME280;57132;51.972;4.450;2022-08-21T06:35:43;101612.94;;;21.81;75.67
69836;BME280;57132;51.972;4.450;2022-08-21T06:38:09;101614.63;;;22.16;75.86
69836;BME280;57132;51.972;4.450;2022-08-21T06:40:34;101609.19;;;22.24;73.27
69836;BME280;57132;51.972;4.450;2022-08-21T06:43:08;101600.94;;;22.75;71.60
69836;BME280;57132;51.972;4.450;2022-08-21T06:45:35;101610.97;;;22.50;73.80
69836;BME280;57132;51.972;4.450;2022-08-21T06:48:00;101607.56;;;22.64;72.18
69836;BME280;57132;51.972;4.450;2022-08-21T06:50:26;101610.34;;;22.97;71.68
69836;BME280;57132;51.972;4.450;2022-08-21T06:52:59;101607.63;;;22.97;71.41
69836;BME280;57132;51.972;4.450;2022-08-21T06:55:25;101610.63;;;23.26;69.13
69836;BME280;57132;51.972;4.450;2022-08-21T06:57:50;101612.69;;;22.67;71.20
69836;BME280;57132;51.972;4.450;2022-08-21T07:00:15;101609.06;;;22.26;73.09
69836;BME280;57132;51.972;4.450;2022-08-21T07:02:41;101605.00;;;22.38;73.26
69836;BME280;57132;51.972;4.450;2022-08-21T07:05:06;101612.31;;;22.46;73.63
69836;BME280;57132;51.972;4.450;2022-08-21T07:07:32;101607.72;;;22.46;74.46
69836;BME280;57132;51.972;4.450;2022-08-21T07:09:57;101608.41;;;22.48;75.36
69836;BME280;57132;51.972;4.450;2022-08-21T07:12:22;101616.09;;;22.77;76.13
69836;BME280;57132;51.972;4.450;2022-08-21T07:14:48;101612.97;;;23.46;73.26
69836;BME280;57132;51.972;4.450;2022-08-21T07:17:13;101622.13;;;23.77;70.58
69836;BME280;57132;51.972;4.450;2022-08-21T07:19:39;101618.53;;;23.77;68.33
69836;BME280;57132;51.972;4.450;2022-08-21T07:22:04;101626.25;;;23.57;69.68
69836;BME280;57132;51.972;4.450;2022-08-21T07:24:29;101617.56;;;23.53;70.15
69836;BME280;57132;51.972;4.450;2022-08-21T07:26:55;101618.19;;;24.19;67.96
69836;BME280;57132;51.972;4.450;2022-08-21T07:29:20;101615.25;;;23.90;69.08
69836;BME280;57132;51.972;4.450;2022-08-21T07:31:46;101614.50;;;23.56;69.94
69836;BME280;57132;51.972;4.450;2022-08-21T07:34:13;101618.31;;;23.15;72.15
69836;BME280;57132;51.972;4.450;2022-08-21T07:36:38;101619.84;;;23.25;73.61
69836;BME280;57132;51.972;4.450;2022-08-21T07:39:04;101621.16;;;23.46;72.42
69836;BME280;57132;51.972;4.450;2022-08-21T07:41:29;101610.81;;;23.25;72.13
69836;BME280;57132;51.972;4.450;2022-08-21T07:43:56;101616.59;;;22.73;73.72
69836;BME280;57132;51.972;4.450;2022-08-21T07:46:22;101614.72;;;22.73;73.97
69836;BME280;57132;51.972;4.450;2022-08-21T07:48:49;101610.38;;;22.14;76.57
69836;BME280;57132;51.972;4.450;2022-08-21T07:51:16;101612.88;;;22.07;76.19
69836;BME280;57132;51.972;4.450;2022-08-21T07:53:45;101601.03;;;21.74;78.26
69836;BME280;57132;51.972;4.450;2022-08-21T07:56:12;101607.38;;;21.56;80.33
69836;BME280;57132;51.972;4.450;2022-08-21T07:58:37;101611.59;;;21.51;79.65
69836;BME280;57132;51.972;4.450;2022-08-21T08:01:02;101614.50;;;21.31;80.37
69836;BME280;57132;51.972;4.450;2022-08-21T08:03:28;101601.41;;;21.01;82.32
69836;BME280;57132;51.972;4.450;2022-08-21T08:05:53;101606.22;;;20.89;83.02
69836;BME280;57132;51.972;4.450;2022-08-21T08:08:19;101614.94;;;20.75;84.03
69836;BME280;57132;51.972;4.450;2022-08-21T08:10:45;101614.56;;;20.52;83.76
69836;BME280;57132;51.972;4.450;2022-08-21T08:13:10;101615.22;;;20.54;85.43
69836;BME280;57132;51.972;4.450;2022-08-21T08:15:37;101614.69;;;20.68;85.94
69836;BME280;57132;51.972;4.450;2022-08-21T08:18:02;101605.78;;;20.76;85.31
69836;BME280;57132;51.972;4.450;2022-08-21T08:20:28;101604.53;;;20.88;85.32
69836;BME280;57132;51.972;4.450;2022-08-21T08:22:54;101609.00;;;20.97;83.38
69836;BME280;57132;51.972;4.450;2022-08-21T08:25:21;101602.34;;;20.74;83.85
69836;BME280;57132;51.972;4.450;2022-08-21T08:27:48;101600.34;;;20.76;86.11
69836;BME280;57132;51.972;4.450;2022-08-21T08:30:15;101597.78;;;20.74;84.91
69836;BME280;57132;51.972;4.450;2022-08-21T08:32:41;101616.41;;;20.69;83.92
69836;BME280;57132;51.972;4.450;2022-08-21T08:35:09;101602.75;;;20.61;84.26
69836;BME280;57132;51.972;4.450;2022-08-21T08:37:35;101598.41;;;20.68;85.18
69836;BME280;57132;51.972;4.450;2022-08-21T08:40:04;101596.31;;;20.80;84.28
69836;BME280;57132;51.972;4.450;2022-08-21T08:42:33;101607.47;;;20.95;85.01
69836;BME280;57132;51.972;4.450;2022-08-21T08:45:04;101601.50;;;21.17;83.61
69836;BME280;57132;51.972;4.450;2022-08-21T08:47:33;101603.13;;;21.28;82.14
69836;BME280;57132;51.972;4.450;2022-08-21T08:52:57;101591.81;;;21.32;79.61
69836;BME280;57132;51.972;4.450;2022-08-21T08:55:33;101594.88;;;21.38;79.28
69836;BME280;57132;51.972;4.450;2022-08-21T08:57:59;101581.47;;;21.36;81.43
69836;BME280;57132;51.972;4.450;2022-08-21T09:00:28;101589.53;;;21.54;78.64
69836;BME280;57132;51.972;4.450;2022-08-21T09:02:56;101585.31;;;21.59;78.35
69836;BME280;57132;51.972;4.450;2022-08-21T09:05:32;101596.78;;;21.79;75.02
69836;BME280;57132;51.972;4.450;2022-08-21T09:11:04;101595.25;;;22.19;75.04
69836;BME280;57132;51.972;4.450;2022-08-21T09:19:09;101603.75;;;21.74;75.13
69836;BME280;57132;51.972;4.450;2022-08-21T09:22:07;101591.13;;;21.65;76.11
69836;BME280;57132;51.972;4.450;2022-08-21T09:24:47;101603.25;;;21.78;77.23
69836;BME280;57132;51.972;4.450;2022-08-21T09:27:17;101603.94;;;21.80;76.64
69836;BME280;57132;51.972;4.450;2022-08-21T09:29:47;101603.97;;;21.89;75.46
69836;BME280;57132;51.972;4.450;2022-08-21T09:32:17;101601.34;;;21.71;74.90
69836;BME280;57132;51.972;4.450;2022-08-21T09:35:05;101603.94;;;21.80;75.04
69836;BME280;57132;51.972;4.450;2022-08-21T09:37:33;101606.59;;;22.06;73.62
69836;BME280;57132;51.972;4.450;2022-08-21T09:40:00;101609.19;;;22.24;71.13
69836;BME280;57132;51.972;4.450;2022-08-21T09:42:29;101607.53;;;22.40;71.12
69836;BME280;57132;51.972;4.450;2022-08-21T09:45:15;101611.41;;;22.21;70.55
69836;BME280;57132;51.972;4.450;2022-08-21T09:47:42;101606.03;;;21.95;72.73
69836;BME280;57132;51.972;4.450;2022-08-21T09:50:27;101603.53;;;21.67;74.87
69836;BME280;57132;51.972;4.450;2022-08-21T09:52:56;101591.84;;;21.41;76.31
69836;BME280;57132;51.972;4.450;2022-08-21T09:55:34;101587.50;;;21.30;77.42
69836;BME280;57132;51.972;4.450;2022-08-21T09:58:19;101594.50;;;21.32;76.76
69836;BME280;57132;51.972;4.450;2022-08-21T10:00:45;101602.88;;;21.39;75.03
69836;BME280;57132;51.972;4.450;2022-08-21T10:05:40;101601.09;;;21.56;72.91
69836;BME280;57132;51.972;4.450;2022-08-21T10:08:19;101595.19;;;21.60;72.96
69836;BME280;57132;51.972;4.450;2022-08-21T10:10:45;101591.72;;;21.84;72.71
69836;BME280;57132;51.972;4.450;2022-08-21T10:16:06;101591.00;;;22.17;71.08
69836;BME280;57132;51.972;4.450;2022-08-21T10:18:44;101600.69;;;22.19;69.58
69836;BME280;57132;51.972;4.450;2022-08-21T10:21:22;101594.63;;;22.33;70.28
69836;BME280;57132;51.972;4.450;2022-08-21T10:26:48;101591.22;;;22.56;67.87
69836;BME280;57132;51.972;4.450;2022-08-21T10:32:13;101590.22;;;22.81;67.04
69836;BME280;57132;51.972;4.450;2022-08-21T10:40:23;101585.13;;;23.11;63.48
69836;BME280;57132;51.972;4.450;2022-08-21T10:48:07;101588.50;;;22.64;65.03
69836;BME280;57132;51.972;4.450;2022-08-21T10:50:39;101589.22;;;22.58;66.16
69836;BME280;57132;51.972;4.450;2022-08-21T10:56:05;101591.53;;;22.37;66.25
69836;BME280;57132;51.972;4.450;2022-08-21T10:58:40;101589.84;;;22.44;67.19
69836;BME280;57132;51.972;4.450;2022-08-21T11:01:19;101599.75;;;22.69;66.32
69836;BME280;57132;51.972;4.450;2022-08-21T11:04:04;101601.13;;;22.81;64.36
69836;BME280;57132;51.972;4.450;2022-08-21T11:06:32;101600.09;;;22.74;64.09
69836;BME280;57132;51.972;4.450;2022-08-21T11:09:06;101600.09;;;22.58;62.76
69836;BME280;57132;51.972;4.450;2022-08-21T11:11:38;101602.81;;;22.50;64.59
69836;BME280;57132;51.972;4.450;2022-08-21T11:17:14;101608.63;;;22.13;65.28
69836;BME280;57132;51.972;4.450;2022-08-21T11:19:45;101604.47;;;21.92;66.87
69836;BME280;57132;51.972;4.450;2022-08-21T11:22:21;101607.72;;;21.96;66.15
69836;BME280;57132;51.972;4.450;2022-08-21T11:27:45;101613.97;;;21.88;64.65
69836;BME280;57132;51.972;4.450;2022-08-21T11:30:14;101610.59;;;21.86;65.12
69836;BME280;57132;51.972;4.450;2022-08-21T11:32:57;101606.81;;;21.79;65.03
69836;BME280;57132;51.972;4.450;2022-08-21T11:35:57;101607.34;;;21.82;65.66
69836;BME280;57132;51.972;4.450;2022-08-21T11:38:27;101610.50;;;21.70;63.80
69836;BME280;57132;51.972;4.450;2022-08-21T11:43:57;101611.59;;;21.85;63.60
69836;BME280;57132;51.972;4.450;2022-08-21T11:46:56;101610.75;;;21.84;61.44
69836;BME280;57132;51.972;4.450;2022-08-21T11:52:16;101610.41;;;21.88;59.17
69836;BME280;57132;51.972;4.450;2022-08-21T11:54:54;101622.22;;;22.13;60.84
69836;BME280;57132;51.972;4.450;2022-08-21T11:57:30;101619.94;;;22.34;59.01
69836;BME280;57132;51.972;4.450;2022-08-21T12:00:07;101613.50;;;22.59;57.56
69836;BME280;57132;51.972;4.450;2022-08-21T12:02:46;101607.09;;;22.85;55.36
69836;BME280;57132;51.972;4.450;2022-08-21T12:05:26;101609.84;;;22.93;54.84
69836;BME280;57132;51.972;4.450;2022-08-21T12:08:30;101608.78;;;23.02;55.43
69836;BME280;57132;51.972;4.450;2022-08-21T12:14:18;101622.53;;;22.76;54.57
69836;BME280;57132;51.972;4.450;2022-08-21T12:16:46;101626.97;;;22.61;55.83
69836;BME280;57132;51.972;4.450;2022-08-21T12:19:14;101624.06;;;23.28;56.48
69836;BME280;57132;51.972;4.450;2022-08-21T12:24:48;101623.84;;;23.54;55.04
69836;BME280;57132;51.972;4.450;2022-08-21T12:29:48;101625.94;;;23.27;56.78
69836;BME280;57132;51.972;4.450;2022-08-21T12:35:17;101629.03;;;22.92;56.73
69836;BME280;57132;51.972;4.450;2022-08-21T12:40:14;101624.59;;;22.66;60.46
69836;BME280;57132;51.972;4.450;2022-08-21T12:42:47;101628.81;;;22.52;60.20
69836;BME280;57132;51.972;4.450;2022-08-21T12:45:32;101636.09;;;22.44;61.79
69836;BME280;57132;51.972;4.450;2022-08-21T12:48:10;101629.84;;;22.59;60.45
69836;BME280;57132;51.972;4.450;2022-08-21T12:50:50;101630.53;;;22.53;61.32
69836;BME280;57132;51.972;4.450;2022-08-21T12:53:28;101631.25;;;22.13;60.75
69836;BME280;57132;51.972;4.450;2022-08-21T12:55:56;101633.78;;;22.06;62.07
69836;BME280;57132;51.972;4.450;2022-08-21T12:58:26;101629.69;;;22.02;62.29
69836;BME280;57132;51.972;4.450;2022-08-21T13:00:56;101622.34;;;21.95;62.12
69836;BME280;57132;51.972;4.450;2022-08-21T13:03:24;101630.03;;;22.07;62.79
69836;BME280;57132;51.972;4.450;2022-08-21T13:05:50;101632.69;;;22.33;61.98
69836;BME280;57132;51.972;4.450;2022-08-21T13:08:19;101631.34;;;22.29;60.57
69836;BME280;57132;51.972;4.450;2022-08-21T13:10:47;101635.44;;;22.42;60.22
69836;BME280;57132;51.972;4.450;2022-08-21T13:13:24;101633.38;;;22.36;60.96
69836;BME280;57132;51.972;4.450;2022-08-21T13:15:57;101632.84;;;22.24;59.09
69836;BME280;57132;51.972;4.450;2022-08-21T13:18:26;101634.84;;;22.14;60.97
69836;BME280;57132;51.972;4.450;2022-08-21T13:21:03;101636.31;;;22.08;61.14
69836;BME280;57132;51.972;4.450;2022-08-21T13:23:29;101630.88;;;22.08;60.92
69836;BME280;57132;51.972;4.450;2022-08-21T13:25:55;101636.75;;;22.21;60.73
69836;BME280;57132;51.972;4.450;2022-08-21T13:28:21;101637.63;;;22.30;60.32
69836;BME280;57132;51.972;4.450;2022-08-21T13:30:52;101642.25;;;22.46;60.19
69836;BME280;57132;51.972;4.450;2022-08-21T13:33:22;101633.25;;;22.45;60.02
69836;BME280;57132;51.972;4.450;2022-08-21T13:38:31;101636.66;;;22.72;58.94
69836;BME280;57132;51.972;4.450;2022-08-21T13:43:50;101632.75;;;22.58;58.79
69836;BME280;57132;51.972;4.450;2022-08-21T13:46:17;101637.47;;;22.48;58.84
69836;BME280;57132;51.972;4.450;2022-08-21T13:48:43;101643.22;;;22.28;55.42
69836;BME280;57132;51.972;4.450;2022-08-21T13:51:09;101635.56;;;22.24;53.07
69836;BME280;57132;51.972;4.450;2022-08-21T13:53:45;101639.81;;;22.26;57.46
69836;BME280;57132;51.972;4.450;2022-08-21T13:56:31;101643.91;;;22.30;55.96
69836;BME280;57132;51.972;4.450;2022-08-21T13:58:59;101641.16;;;22.22;58.13
69836;BME280;57132;51.972;4.450;2022-08-21T14:01:32;101638.78;;;22.19;60.64
69836;BME280;57132;51.972;4.450;2022-08-21T14:04:03;101647.28;;;22.24;60.65